Terminal Aerodrome Forecast
Issued by NWS

Home | Current Version | Previous Version | Text Only | Print | Product List | Glossary On
Versions: 1 2 3 4 5 6 7 8 9 10 11 12 13 14
000
FTUS45 KRIW 252300
TAFCOD
TAF
KCOD 252331Z 2600/2624 36010KT 1SM -SN BR SCT008 OVC015
      TEMPO 2600/2603 3/4SM -SN BKN005
     FM260800 34006KT 4SM -SN OVC018
     FM261500 VRB06KT P6SM SCT020 BKN060
     FM261900 33016KT P6SM SCT050 BKN100
      AMD LTD TO CLD VIS AND WIND=

USA.gov is the U.S. government's official web portal to all federal, state and local government web resources and services.